Sea Cloud II — 9HUE6 — position and weather

sailwx.info

Track history (hours):
 
Tides and Currents Weather Stations Pressure Air Temp Water Temp Dewpoint Dewpoint Depression Visibility Wind Speed Wind Dir Waves Ship Positions

Sea Cloud II

Ship's website: http://www.seacloud.com/en/the-ships/sea-cloud-ii.html

Last reported at 2015-Jan-02 00:16 UTC. Time now 2015-Jan-27 21:02 UTC.
Position N 18°24' W 064°29'.
Warning: this ship's position is 25 days out of date.

Length 117 m; draft 5.9 m.

Type: Passenger vessel. MMSI: 248953000.

Date/timePositionNaut miles runAvg speedWind from/ knotsBaromVisibWave heightAir tempDewpointWater temp
2015-Jan-02 00:16N 18°24' W 064°29'7 8.6
2015-Jan-01 23:25N 18°22' W 064°37'5 6.0
2015-Jan-01 22:33N 18°22' W 064°42'5 5.3
2015-Jan-01 21:33N 18°26' W 064°46'0 0.1
2015-Jan-01 20:25N 18°26' W 064°46'0 0.0
2015-Jan-01 19:31N 18°26' W 064°46'0 0.0
2015-Jan-01 18:25N 18°26' W 064°46'0 0.0
2015-Jan-01 17:31N 18°26' W 064°46'0 0.0
2015-Jan-01 16:31N 18°26' W 064°46'0 0.0
2015-Jan-01 15:31N 18°26' W 064°46'0 0.0
2015-Jan-01 14:31N 18°26' W 064°46'0 0.0
2015-Jan-01 13:25N 18°26' W 064°46'0 0.1
2015-Jan-01 12:25N 18°26' W 064°46'1 0.7
2015-Jan-01 11:25N 18°26' W 064°45'0 0.0
2015-Jan-01 10:25N 18°26' W 064°45'0 0.0
2015-Jan-01 09:31N 18°26' W 064°45'0 0.0
2015-Jan-01 08:31N 18°26' W 064°45'0 0.0
2015-Jan-01 07:31N 18°26' W 064°45'0 0.0
2015-Jan-01 06:25N 18°26' W 064°45'0 0.0
2015-Jan-01 05:31N 18°26' W 064°45'0 0.0
2015-Jan-01 04:31N 18°26' W 064°45'0 0.0
2015-Jan-01 03:25N 18°26' W 064°45'0 0.0
2015-Jan-01 02:13N 18°26' W 064°45'0 0.0
2015-Jan-01 01:31N 18°26' W 064°45'0 0.0
2015-Jan-01 00:31N 18°26' W 064°45'0 0.0
2014-Dec-31 23:31N 18°26' W 064°45'0 0.0
2014-Dec-31 22:13N 18°26' W 064°45'1 1.0
2014-Dec-31 21:33N 18°26' W 064°45'7 7.2
2014-Dec-31 20:33N 18°22' W 064°38'4 4.1
2014-Dec-31 19:33N 18°24' W 064°34'4 4.0
2014-Dec-31 18:33N 18°25' W 064°30'7 0.9
2014-Dec-31 10:30N 18°31' W 064°25'1110.3
2014-Dec-31 09:28N 18°30' W 064°14'  
Track history (hours):
 
Tides and Currents Weather Stations Pressure Air Temp Water Temp Dewpoint Dewpoint Depression Visibility Wind Speed Wind Dir Waves Ship Positions

Sea Cloud II

Ship's website: http://www.seacloud.com/en/the-ships/sea-cloud-ii.html

Last reported at 2015-Jan-02 00:16 UTC. Time now 2015-Jan-27 21:02 UTC.
Position N 18°24' W 064°29'.
Warning: this ship's position is 25 days out of date.

Length 117 m; draft 5.9 m.

Type: Passenger vessel. MMSI: 248953000.

Date/timePositionNaut miles runAvg speedWind from/ knotsBaromVisibWave heightAir tempDewpointWater temp
2015-Jan-02 00:16N 18°24' W 064°29'7 8.6
2015-Jan-01 23:25N 18°22' W 064°37'5 6.0
2015-Jan-01 22:33N 18°22' W 064°42'5 5.3
2015-Jan-01 21:33N 18°26' W 064°46'0 0.1
2015-Jan-01 20:25N 18°26' W 064°46'0 0.0
2015-Jan-01 19:31N 18°26' W 064°46'0 0.0
2015-Jan-01 18:25N 18°26' W 064°46'0 0.0
2015-Jan-01 17:31N 18°26' W 064°46'0 0.0
2015-Jan-01 16:31N 18°26' W 064°46'0 0.0
2015-Jan-01 15:31N 18°26' W 064°46'0 0.0
2015-Jan-01 14:31N 18°26' W 064°46'0 0.0
2015-Jan-01 13:25N 18°26' W 064°46'0 0.1
2015-Jan-01 12:25N 18°26' W 064°46'1 0.7
2015-Jan-01 11:25N 18°26' W 064°45'0 0.0
2015-Jan-01 10:25N 18°26' W 064°45'0 0.0
2015-Jan-01 09:31N 18°26' W 064°45'0 0.0
2015-Jan-01 08:31N 18°26' W 064°45'0 0.0
2015-Jan-01 07:31N 18°26' W 064°45'0 0.0
2015-Jan-01 06:25N 18°26' W 064°45'0 0.0
2015-Jan-01 05:31N 18°26' W 064°45'0 0.0
2015-Jan-01 04:31N 18°26' W 064°45'0 0.0
2015-Jan-01 03:25N 18°26' W 064°45'0 0.0
2015-Jan-01 02:13N 18°26' W 064°45'0 0.0
2015-Jan-01 01:31N 18°26' W 064°45'0 0.0
2015-Jan-01 00:31N 18°26' W 064°45'0 0.0
2014-Dec-31 23:31N 18°26' W 064°45'0 0.0
2014-Dec-31 22:13N 18°26' W 064°45'1 1.0
2014-Dec-31 21:33N 18°26' W 064°45'7 7.2
2014-Dec-31 20:33N 18°22' W 064°38'4 4.1
2014-Dec-31 19:33N 18°24' W 064°34'4 4.0
2014-Dec-31 18:33N 18°25' W 064°30'7 0.9
2014-Dec-31 10:30N 18°31' W 064°25'1110.3
2014-Dec-31 09:28N 18°30' W 064°14'  

Dump ship's entire track history